Time;durP1;ratioP1;P1;durP2;ratioP2;P2;SDS_P1;SDS_P2;PMS_P1;PMS_P2;Temp;Humidity;BMP_temperature;BMP_pressure;BME280_temperature;BME280_humidity;BME280_pressure;Samples;Min_cycle;Max_cycle;Signal;HPM_P1;HPM_P2
2023/02/27 00:02:14;;;;;;;;;;;;;;;24.33;17.17;98485.06;5065615;28;19958;-84
2023/02/27 00:04:40;;;;;;;;;;;;;;;24.41;17.00;98492.16;5070939;28;19944;-86
2023/02/27 00:07:07;;;;;;;;;;;;;;;24.43;17.38;98489.72;5071610;28;20384;-86
2023/02/27 00:09:33;;;;;;;;;;;;;;;24.35;16.66;98486.22;5071738;28;19928;-84
2023/02/27 00:11:59;;;;;;;;;;;;;;;24.00;17.51;98486.75;5071262;28;20296;-84
2023/02/27 00:14:26;;;;;;;;;;;;;;;23.97;17.49;98481.97;5072894;28;20022;-84
2023/02/27 00:16:52;;;;;;;;;;;;;;;23.97;17.04;98488.38;5068602;28;19916;-84
2023/02/27 00:19:18;;;;;;;;;;;;;;;23.93;17.60;98492.47;5071734;28;20334;-84
2023/02/27 00:21:44;;;;;;;;;;;;;;;23.56;17.87;98501.78;5067917;28;19956;-86
2023/02/27 00:24:10;;;;;;;;;;;;;;;23.65;18.28;98498.47;5067838;28;19920;-84
2023/02/27 00:26:36;;;;;;;;;;;;;;;23.95;17.95;98501.25;5074486;28;20355;-85
2023/02/27 00:29:03;;;;;;;;;;;;;;;24.12;17.59;98499.41;5072271;28;20380;-84
2023/02/27 00:31:29;;;;;;;;;;;;;;;24.24;16.81;98493.22;5070188;28;19921;-84
2023/02/27 00:33:55;;;;;;;;;;;;;;;24.24;17.31;98493.22;5058667;28;19982;-84
2023/02/27 00:36:21;;;;;;;;;;;;;;;23.85;17.03;98497.38;5060600;28;19916;-86
2023/02/27 00:38:47;;;;;;;;;;;;;;;23.45;17.26;98495.53;5068228;28;20441;-85
2023/02/27 00:41:13;;;;;;;;;;;;;;;23.43;17.45;98505.59;5066078;28;19921;-84
2023/02/27 00:43:39;;;;;;;;;;;;;;;23.66;18.15;98500.88;5064670;28;19931;-84
2023/02/27 00:46:05;;;;;;;;;;;;;;;23.94;17.53;98494.84;5073656;28;19927;-84
2023/02/27 00:48:32;;;;;;;;;;;;;;;23.99;17.29;98491.56;5066959;28;19963;-84
2023/02/27 00:50:58;;;;;;;;;;;;;;;23.88;17.33;98495.75;5071197;28;19921;-84
2023/02/27 00:53:24;;;;;;;;;;;;;;;23.72;17.42;98495.56;5065155;28;19917;-86
2023/02/27 00:55:50;;;;;;;;;;;;;;;23.66;17.35;98500.06;5068832;28;19924;-84
2023/02/27 00:58:16;;;;;;;;;;;;;;;23.71;17.57;98505.22;5065967;28;20399;-84
2023/02/27 01:00:42;;;;;;;;;;;;;;;23.88;17.82;98504.94;5069173;28;19921;-84
2023/02/27 01:03:08;;;;;;;;;;;;;;;23.87;17.68;98497.78;5059384;28;20284;-84
2023/02/27 01:05:34;;;;;;;;;;;;;;;23.70;17.36;98495.19;5056457;28;19913;-84
2023/02/27 01:08:00;;;;;;;;;;;;;;;23.64;17.55;98497.66;5062350;28;19932;-84
2023/02/27 01:10:26;;;;;;;;;;;;;;;23.86;18.20;98507.38;5054515;28;19916;-84
2023/02/27 01:12:52;;;;;;;;;;;;;;;23.63;17.52;98504.50;5058588;28;19921;-84
2023/02/27 01:15:18;;;;;;;;;;;;;;;23.32;17.93;98506.47;5074531;28;20310;-84
2023/02/27 01:17:44;;;;;;;;;;;;;;;23.44;18.12;98509.97;5075567;28;20338;-84
2023/02/27 01:20:11;;;;;;;;;;;;;;;23.70;18.08;98510.00;5056977;28;19931;-84
2023/02/27 01:22:37;;;;;;;;;;;;;;;23.86;17.75;98515.78;5069910;28;19923;-84
2023/02/27 01:25:03;;;;;;;;;;;;;;;23.74;17.13;98516.38;5076495;28;19921;-84
2023/02/27 01:27:29;;;;;;;;;;;;;;;22.70;17.74;98517.16;5077743;28;20379;-86
2023/02/27 01:29:55;;;;;;;;;;;;;;;21.87;18.38;98517.34;5072439;28;19940;-84
2023/02/27 01:32:21;;;;;;;;;;;;;;;21.54;19.02;98523.50;5074726;28;19924;-84
2023/02/27 01:34:48;;;;;;;;;;;;;;;21.77;19.48;98521.78;5066184;28;19928;-84
2023/02/27 01:37:14;;;;;;;;;;;;;;;20.04;20.39;98528.84;5067409;28;19920;-84
2023/02/27 01:39:40;;;;;;;;;;;;;;;20.75;19.80;98522.09;5072347;28;19949;-84
2023/02/27 01:42:15;;;;;;;;;;;;;;;17.66;23.02;98527.72;5073504;28;19921;-84
2023/02/27 01:45:17;;;;;;;;;;;;;;;17.66;22.94;98525.75;5069303;28;19920;-84
2023/02/27 01:47:46;;;;;;;;;;;;;;;18.97;21.36;98526.84;4988088;28;19926;-84
2023/02/27 01:50:12;;;;;;;;;;;;;;;19.75;20.55;98517.66;5058725;28;19921;-84
2023/02/27 01:52:42;;;;;;;;;;;;;;;19.74;20.47;98532.00;5065872;28;19925;-84
2023/02/27 01:55:11;;;;;;;;;;;;;;;18.98;21.17;98537.59;5070332;28;19920;-84
2023/02/27 01:57:39;;;;;;;;;;;;;;;20.66;19.50;98530.09;5069519;28;19931;-84
2023/02/27 02:00:06;;;;;;;;;;;;;;;21.45;19.35;98528.75;5064895;28;19928;-84
2023/02/27 02:02:37;;;;;;;;;;;;;;;19.78;20.38;98533.59;5068919;28;19929;-84
2023/02/27 02:05:04;;;;;;;;;;;;;;;17.50;23.43;98529.88;5064108;28;19927;-84
2023/02/27 02:07:31;;;;;;;;;;;;;;;15.40;25.79;98535.19;5070597;28;19924;-84
2023/02/27 02:09:58;;;;;;;;;;;;;;;13.09;29.32;98531.84;5067060;28;19920;-84
2023/02/27 02:12:27;;;;;;;;;;;;;;;11.54;31.43;98540.50;5074139;28;19928;-84
2023/02/27 02:14:53;;;;;;;;;;;;;;;12.30;30.49;98538.00;5074092;28;19920;-84
2023/02/27 02:17:39;;;;;;;;;;;;;;;14.19;26.88;98532.84;5072686;28;19925;-84
2023/02/27 02:20:14;;;;;;;;;;;;;;;12.84;29.44;98539.31;5055748;28;20315;-84
2023/02/27 02:22:52;;;;;;;;;;;;;;;15.17;25.50;98531.53;5054265;28;19928;-84
2023/02/27 02:25:18;;;;;;;;;;;;;;;17.17;22.74;98525.91;5066826;28;20384;-84
2023/02/27 02:27:59;;;;;;;;;;;;;;;15.70;24.44;98525.16;5068598;28;19931;-84
2023/02/27 02:30:27;;;;;;;;;;;;;;;19.06;20.72;98533.69;5068299;28;20368;-84
2023/02/27 02:33:16;;;;;;;;;;;;;;;18.59;20.97;98534.56;5066811;28;19975;-84
2023/02/27 02:35:42;;;;;;;;;;;;;;;15.65;24.38;98536.50;5062321;28;19950;-85
2023/02/27 02:38:31;;;;;;;;;;;;;;;14.66;26.05;98543.84;5067492;28;19932;-84
2023/02/27 02:41:15;;;;;;;;;;;;;;;14.02;26.60;98546.97;5069291;28;19920;-86
2023/02/27 02:43:47;;;;;;;;;;;;;;;14.01;26.49;98550.88;5066006;28;19916;-85
2023/02/27 02:46:16;;;;;;;;;;;;;;;17.69;22.60;98546.41;5073267;28;20038;-85
2023/02/27 02:48:51;;;;;;;;;;;;;;;18.88;20.10;98555.00;5073197;28;20364;-85
2023/02/27 02:51:36;;;;;;;;;;;;;;;19.41;20.10;98560.09;5069809;28;20413;-85
2023/02/27 02:54:02;;;;;;;;;;;;;;;18.03;21.20;98566.59;5059066;28;19999;-85
2023/02/27 02:56:31;;;;;;;;;;;;;;;16.19;22.93;98571.50;5069628;28;19920;-85
2023/02/27 02:58:58;;;;;;;;;;;;;;;16.67;22.46;98573.53;5073249;28;19931;-85
2023/02/27 03:01:34;;;;;;;;;;;;;;;17.54;21.37;98567.63;5059877;28;19966;-85
2023/02/27 03:04:04;;;;;;;;;;;;;;;18.92;20.20;98569.75;5061769;28;19924;-85
2023/02/27 03:06:36;;;;;;;;;;;;;;;17.27;21.54;98564.09;5065187;28;19920;-85
2023/02/27 03:09:06;;;;;;;;;;;;;;;13.47;26.95;98569.91;5069762;28;19960;-85
2023/02/27 03:11:36;;;;;;;;;;;;;;;16.75;22.70;98569.69;5055406;28;19928;-85
2023/02/27 03:14:06;;;;;;;;;;;;;;;18.41;20.82;98566.94;5068103;28;19947;-86
2023/02/27 03:16:32;;;;;;;;;;;;;;;18.44;20.98;98566.16;5073777;28;20241;-86
2023/02/27 03:19:02;;;;;;;;;;;;;;;17.15;21.21;98574.63;5073957;28;19928;-86
2023/02/27 03:21:37;;;;;;;;;;;;;;;15.30;24.29;98582.81;5072144;28;19921;-86
2023/02/27 03:24:05;;;;;;;;;;;;;;;13.80;26.64;98590.59;5067890;28;19943;-86
2023/02/27 03:26:33;;;;;;;;;;;;;;;13.40;26.58;98589.03;5069105;28;20054;-86
2023/02/27 03:29:01;;;;;;;;;;;;;;;15.62;23.71;98595.34;5071602;28;20408;-86
2023/02/27 03:31:39;;;;;;;;;;;;;;;13.07;27.59;98606.59;5078377;28;20002;-86
2023/02/27 03:34:11;;;;;;;;;;;;;;;14.96;25.03;98598.25;5074668;28;20003;-86
2023/02/27 03:36:50;;;;;;;;;;;;;;;13.98;25.89;98601.31;5050914;28;19927;-85
2023/02/27 03:39:16;;;;;;;;;;;;;;;14.31;25.78;98605.34;5067830;28;20021;-86
2023/02/27 03:42:20;;;;;;;;;;;;;;;16.20;23.66;98603.56;5070299;28;19963;-86
2023/02/27 03:45:05;;;;;;;;;;;;;;;16.60;21.89;98609.44;5009967;28;20335;-86
2023/02/27 03:47:32;;;;;;;;;;;;;;;15.20;24.23;98611.03;5006520;28;19947;-86
2023/02/27 03:49:58;;;;;;;;;;;;;;;14.82;24.28;98622.78;5040819;28;20425;-86
2023/02/27 03:52:25;;;;;;;;;;;;;;;14.77;24.62;98622.28;5072103;28;19927;-86
2023/02/27 03:54:56;;;;;;;;;;;;;;;16.74;22.51;98617.19;5070199;28;19920;-86
2023/02/27 03:57:22;;;;;;;;;;;;;;;15.83;23.27;98619.88;5071790;28;19932;-86
2023/02/27 03:59:49;;;;;;;;;;;;;;;14.81;24.20;98634.22;5067968;28;19920;-86
2023/02/27 04:02:15;;;;;;;;;;;;;;;16.39;22.68;98634.81;5070266;28;19921;-86
2023/02/27 04:04:41;;;;;;;;;;;;;;;15.51;24.08;98635.84;5066153;28;19929;-86
2023/02/27 04:07:23;;;;;;;;;;;;;;;13.75;26.00;98640.50;5060146;28;20034;-85
2023/02/27 04:10:07;;;;;;;;;;;;;;;13.28;25.96;98639.50;5075045;28;20039;-86
2023/02/27 04:12:48;;;;;;;;;;;;;;;13.09;26.17;98644.84;5070271;28;19920;-86
2023/02/27 04:15:40;;;;;;;;;;;;;;;15.29;24.14;98644.81;5068862;28;19946;-86
2023/02/27 04:18:15;;;;;;;;;;;;;;;13.01;26.49;98646.53;5055646;28;19921;-86
2023/02/27 04:20:48;;;;;;;;;;;;;;;14.71;24.56;98652.16;5070540;28;19920;-85
2023/02/27 04:23:22;;;;;;;;;;;;;;;14.52;24.20;98650.09;5072814;28;20434;-85
2023/02/27 04:25:50;;;;;;;;;;;;;;;15.99;22.32;98656.59;5069585;28;19929;-86
2023/02/27 04:28:28;;;;;;;;;;;;;;;15.51;22.72;98655.22;5070521;28;19973;-86
2023/02/27 04:31:07;;;;;;;;;;;;;;;14.35;24.53;98663.47;5071862;28;19920;-86
2023/02/27 04:33:50;;;;;;;;;;;;;;;16.26;21.83;98657.50;5061176;28;19920;-86
2023/02/27 04:36:37;;;;;;;;;;;;;;;16.19;22.33;98654.59;5069914;28;19930;-86
2023/02/27 04:39:08;;;;;;;;;;;;;;;16.59;21.99;98652.22;5066284;28;20367;-85
2023/02/27 04:41:43;;;;;;;;;;;;;;;16.62;22.06;98650.69;5069966;28;19974;-85
2023/02/27 04:44:11;;;;;;;;;;;;;;;15.02;23.07;98665.13;5054053;28;19925;-86
2023/02/27 04:46:39;;;;;;;;;;;;;;;14.60;24.23;98653.84;5072369;28;19932;-86
2023/02/27 04:49:11;;;;;;;;;;;;;;;13.18;26.31;98666.75;5068860;28;20415;-86
2023/02/27 04:51:50;;;;;;;;;;;;;;;14.21;25.32;98668.59;5077275;28;19971;-86
2023/02/27 04:54:20;;;;;;;;;;;;;;;14.01;24.05;98662.13;5069869;28;20014;-86
2023/02/27 04:56:50;;;;;;;;;;;;;;;13.93;24.55;98667.81;5073544;28;19921;-86
2023/02/27 04:59:19;;;;;;;;;;;;;;;15.21;22.83;98663.22;5069776;28;19981;-85
2023/02/27 05:01:51;;;;;;;;;;;;;;;15.62;22.41;98666.50;5076572;28;19959;-86
2023/02/27 05:04:19;;;;;;;;;;;;;;;16.26;21.22;98663.06;5067709;28;19924;-87
2023/02/27 05:06:46;;;;;;;;;;;;;;;16.88;20.95;98661.78;5080426;28;19917;-86
2023/02/27 05:09:11;;;;;;;;;;;;;;;14.04;23.60;98669.69;5069075;28;19974;-86
2023/02/27 05:11:48;;;;;;;;;;;;;;;13.79;24.42;98674.50;5074786;28;19920;-86
2023/02/27 05:14:21;;;;;;;;;;;;;;;13.98;24.48;98673.84;5070231;28;19920;-86
2023/02/27 05:16:57;;;;;;;;;;;;;;;15.09;22.81;98679.13;5080029;28;20002;-87
2023/02/27 05:19:23;;;;;;;;;;;;;;;13.58;24.78;98687.69;5071035;28;20342;-88
2023/02/27 05:21:49;;;;;;;;;;;;;;;12.80;26.15;98686.38;5062140;28;20525;-88
2023/02/27 05:24:21;;;;;;;;;;;;;;;12.43;27.01;98689.13;5063142;28;19999;-88
2023/02/27 05:26:59;;;;;;;;;;;;;;;11.90;27.69;98696.63;5065078;28;19928;-86
2023/02/27 05:29:48;;;;;;;;;;;;;;;13.67;23.85;98691.13;5047090;28;20447;-88
2023/02/27 05:32:24;;;;;;;;;;;;;;;15.16;22.63;98688.41;5029498;28;19964;-88
2023/02/27 05:35:02;;;;;;;;;;;;;;;15.34;22.06;98694.31;5021735;28;19920;-87
2023/02/27 05:37:38;;;;;;;;;;;;;;;16.50;21.41;98687.63;5046695;28;19921;-87
2023/02/27 05:40:07;;;;;;;;;;;;;;;16.87;20.49;98688.75;5050211;28;19958;-87
2023/02/27 05:42:37;;;;;;;;;;;;;;;16.67;19.93;98689.16;5048564;28;19921;-88
2023/02/27 05:45:08;;;;;;;;;;;;;;;17.91;19.35;98689.88;5053954;28;19928;-89
2023/02/27 05:47:37;;;;;;;;;;;;;;;14.41;23.10;98700.72;5063537;28;19920;-87
2023/02/27 05:50:09;;;;;;;;;;;;;;;15.94;21.52;98703.97;5043864;28;20288;-88
2023/02/27 05:52:36;;;;;;;;;;;;;;;16.87;20.15;98688.75;5063627;28;20732;-87
2023/02/27 05:55:08;;;;;;;;;;;;;;;17.49;19.90;98692.06;5032944;28;19928;-88
2023/02/27 05:57:39;;;;;;;;;;;;;;;19.21;18.42;98690.41;5049203;28;19924;-88
2023/02/27 06:00:09;;;;;;;;;;;;;;;20.10;17.85;98694.53;5048034;28;20036;-91
2023/02/27 06:02:35;;;;;;;;;;;;;;;20.64;16.78;98689.53;5043773;28;20304;-88
2023/02/27 06:05:01;;;;;;;;;;;;;;;20.59;16.85;98700.28;5045623;28;20394;-88
2023/02/27 06:07:29;;;;;;;;;;;;;;;21.22;17.31;98694.78;5048154;28;20004;-88
2023/02/27 06:09:55;;;;;;;;;;;;;;;21.70;15.73;98694.31;5055185;28;19924;-88
2023/02/27 06:12:21;;;;;;;;;;;;;;;21.54;15.75;98694.72;5052311;28;19928;-88
2023/02/27 06:14:47;;;;;;;;;;;;;;;21.53;15.78;98703.50;5055770;28;20003;-88
2023/02/27 06:17:13;;;;;;;;;;;;;;;21.21;16.37;98703.56;5055493;28;19964;-88
2023/02/27 06:19:39;;;;;;;;;;;;;;;21.27;16.33;98711.13;5070816;28;19923;-88
2023/02/27 06:22:05;;;;;;;;;;;;;;;20.49;16.99;98726.19;5075744;28;20287;-88
2023/02/27 06:24:31;;;;;;;;;;;;;;;20.87;16.98;98716.25;5060627;28;19917;-88
2023/02/27 06:26:57;;;;;;;;;;;;;;;18.87;18.31;98722.34;5034302;28;19921;-88
2023/02/27 06:29:23;;;;;;;;;;;;;;;19.85;17.60;98716.72;5037350;28;20019;-88
2023/02/27 06:31:49;;;;;;;;;;;;;;;18.76;18.56;98724.22;5058248;28;20319;-88
2023/02/27 06:34:16;;;;;;;;;;;;;;;19.14;18.41;98720.97;5067056;28;19943;-87
2023/02/27 06:36:42;;;;;;;;;;;;;;;17.65;19.73;98724.06;5070337;28;20002;-87
2023/02/27 06:39:08;;;;;;;;;;;;;;;19.05;19.33;98724.09;5075293;28;19920;-87
2023/02/27 06:41:34;;;;;;;;;;;;;;;18.23;19.42;98724.41;5075430;28;19952;-88
2023/02/27 06:44:00;;;;;;;;;;;;;;;15.59;22.35;98730.91;5075126;28;20292;-87
2023/02/27 06:46:26;;;;;;;;;;;;;;;17.40;20.27;98731.19;5072020;28;19947;-87
2023/02/27 06:48:52;;;;;;;;;;;;;;;16.43;21.65;98743.72;5056810;28;19920;-87
2023/02/27 06:51:18;;;;;;;;;;;;;;;16.76;22.37;98740.41;5071913;28;19923;-87
2023/02/27 06:53:44;;;;;;;;;;;;;;;17.20;21.12;98740.75;5075313;28;19921;-87
2023/02/27 06:56:10;;;;;;;;;;;;;;;15.44;22.94;98745.53;5072929;28;19924;-87
2023/02/27 06:58:36;;;;;;;;;;;;;;;16.75;21.51;98749.94;5087339;28;19940;-87
2023/02/27 07:01:02;;;;;;;;;;;;;;;16.75;22.49;98738.03;5072020;28;19920;-87
2023/02/27 07:03:28;;;;;;;;;;;;;;;14.34;26.44;98751.03;5072769;28;19924;-87
2023/02/27 07:05:55;;;;;;;;;;;;;;;12.83;28.05;98763.66;5074676;28;19924;-87
2023/02/27 07:08:21;;;;;;;;;;;;;;;11.86;29.82;98772.72;5074451;28;19916;-87
2023/02/27 07:10:47;;;;;;;;;;;;;;;11.72;30.83;98771.03;5072884;28;19935;-87
2023/02/27 07:13:14;;;;;;;;;;;;;;;12.58;28.33;98764.75;5070320;28;19974;-87
2023/02/27 07:15:40;;;;;;;;;;;;;;;14.33;26.90;98760.47;5072667;28;19920;-87
2023/02/27 07:18:06;;;;;;;;;;;;;;;12.56;29.34;98767.03;5092342;28;19931;-86
2023/02/27 07:20:32;;;;;;;;;;;;;;;12.21;29.74;98779.53;5094739;28;19916;-87
2023/02/27 07:22:58;;;;;;;;;;;;;;;13.67;27.48;98765.63;5094562;28;19916;-87
2023/02/27 07:25:24;;;;;;;;;;;;;;;12.61;28.44;98772.31;5071645;28;19990;-86
2023/02/27 07:27:50;;;;;;;;;;;;;;;12.95;28.08;98776.66;5055344;28;19928;-87
2023/02/27 07:30:17;;;;;;;;;;;;;;;13.10;28.27;98774.03;5074090;28;19928;-86
2023/02/27 07:32:43;;;;;;;;;;;;;;;12.72;28.15;98779.00;5074765;28;19920;-87
2023/02/27 07:35:09;;;;;;;;;;;;;;;14.01;26.60;98791.88;5056141;28;19921;-87
2023/02/27 07:37:35;;;;;;;;;;;;;;;12.24;29.41;98793.44;5074115;28;19917;-87
2023/02/27 07:40:02;;;;;;;;;;;;;;;11.54;30.14;98793.47;5073973;28;19919;-87
2023/02/27 07:42:28;;;;;;;;;;;;;;;12.33;29.39;98796.09;5071545;28;19925;-86
2023/02/27 07:44:54;;;;;;;;;;;;;;;11.90;30.30;98796.50;5073752;28;20284;-87
2023/02/27 07:47:20;;;;;;;;;;;;;;;10.85;32.17;98798.50;5073793;28;19916;-87
2023/02/27 07:49:46;;;;;;;;;;;;;;;11.29;32.74;98808.97;5082331;28;19916;-86
2023/02/27 07:52:12;;;;;;;;;;;;;;;10.55;32.79;98803.09;5076387;28;20002;-87
2023/02/27 07:54:38;;;;;;;;;;;;;;;10.86;32.49;98805.59;5093862;28;19948;-87
2023/02/27 07:57:04;;;;;;;;;;;;;;;11.69;31.88;98812.97;5073913;28;19920;-86
2023/02/27 07:59:31;;;;;;;;;;;;;;;11.83;31.40;98809.16;5089054;28;19927;-86
2023/02/27 08:01:57;;;;;;;;;;;;;;;10.93;32.54;98816.88;5071950;28;20103;-86
2023/02/27 08:04:23;;;;;;;;;;;;;;;12.10;31.14;98809.44;5074074;28;19921;-86
2023/02/27 08:06:49;;;;;;;;;;;;;;;12.54;28.97;98807.06;5082936;28;20469;-87
2023/02/27 08:09:15;;;;;;;;;;;;;;;11.32;32.71;98819.28;5076194;28;19928;-86
2023/02/27 08:11:41;;;;;;;;;;;;;;;12.88;29.80;98815.78;5092714;28;19916;-86
2023/02/27 08:14:07;;;;;;;;;;;;;;;15.60;26.22;98808.03;5062928;28;19920;-86
2023/02/27 08:16:33;;;;;;;;;;;;;;;15.91;25.32;98818.25;5053364;28;19947;-86
2023/02/27 08:18:59;;;;;;;;;;;;;;;16.51;24.95;98814.00;5052397;28;19975;-86
2023/02/27 08:21:25;;;;;;;;;;;;;;;15.52;26.59;98811.78;5070180;28;19995;-86
2023/02/27 08:23:52;;;;;;;;;;;;;;;14.03;28.98;98817.16;5073364;28;19917;-86
2023/02/27 08:26:18;;;;;;;;;;;;;;;17.82;23.95;98817.13;5073193;28;19924;-86
2023/02/27 08:28:44;;;;;;;;;;;;;;;18.94;22.08;98814.22;5073269;28;19925;-86
2023/02/27 08:31:10;;;;;;;;;;;;;;;17.33;23.55;98817.13;5073625;28;20011;-86
2023/02/27 08:33:36;;;;;;;;;;;;;;;17.44;23.98;98817.28;5052779;28;19921;-86
2023/02/27 08:36:02;;;;;;;;;;;;;;;19.32;21.27;98806.22;5049180;28;19946;-86
2023/02/27 08:38:28;;;;;;;;;;;;;;;18.40;22.29;98817.53;5053538;28;19917;-86
2023/02/27 08:40:54;;;;;;;;;;;;;;;17.61;23.36;98812.06;5043230;28;19917;-86
2023/02/27 08:43:20;;;;;;;;;;;;;;;15.31;25.12;98824.28;5033227;28;20024;-86
2023/02/27 08:45:47;;;;;;;;;;;;;;;18.12;22.17;98815.19;5033333;28;19956;-86
2023/02/27 08:48:14;;;;;;;;;;;;;;;16.33;23.95;98826.66;5048287;28;20339;-86
2023/02/27 08:50:41;;;;;;;;;;;;;;;14.80;26.65;98826.91;5058151;28;19925;-86
2023/02/27 08:53:07;;;;;;;;;;;;;;;14.26;28.61;98837.56;5073207;28;19913;-86
2023/02/27 08:55:33;;;;;;;;;;;;;;;13.38;29.31;98843.09;5055192;28;19921;-86
2023/02/27 08:57:59;;;;;;;;;;;;;;;13.47;29.60;98834.69;5045297;28;20249;-86
2023/02/27 09:00:25;;;;;;;;;;;;;;;13.38;28.47;98839.53;5053296;28;19966;-86
2023/02/27 09:02:51;;;;;;;;;;;;;;;13.87;27.28;98841.13;5031643;28;19921;-86
2023/02/27 09:05:18;;;;;;;;;;;;;;;14.07;25.51;98844.88;5031052;28;19959;-85
2023/02/27 09:07:44;;;;;;;;;;;;;;;14.76;26.17;98850.88;5052545;28;19920;-86
2023/02/27 09:10:11;;;;;;;;;;;;;;;15.63;25.63;98846.06;5052767;28;19921;-86
2023/02/27 09:12:38;;;;;;;;;;;;;;;16.11;24.54;98844.78;5051084;28;19928;-85
2023/02/27 09:15:05;;;;;;;;;;;;;;;16.51;24.46;98845.31;5049825;28;20487;-85
2023/02/27 09:17:31;;;;;;;;;;;;;;;16.76;22.79;98848.56;5052867;28;19917;-85
2023/02/27 09:19:57;;;;;;;;;;;;;;;17.22;23.36;98855.78;5052959;28;19924;-85
2023/02/27 09:22:23;;;;;;;;;;;;;;;17.12;23.46;98852.81;5052772;28;20008;-85
2023/02/27 09:24:49;;;;;;;;;;;;;;;15.48;26.04;98863.47;5052826;28;19924;-85
2023/02/27 09:27:15;;;;;;;;;;;;;;;13.69;27.77;98867.34;5053727;28;20001;-85
2023/02/27 09:29:41;;;;;;;;;;;;;;;14.92;25.32;98875.78;5071820;28;20368;-85
2023/02/27 09:32:07;;;;;;;;;;;;;;;15.95;24.60;98866.19;5073648;28;20399;-85
2023/02/27 09:34:34;;;;;;;;;;;;;;;15.96;26.09;98862.28;5071309;28;20409;-85
2023/02/27 09:37:00;;;;;;;;;;;;;;;16.08;24.32;98864.91;5076080;28;20328;-85
2023/02/27 09:39:27;;;;;;;;;;;;;;;16.03;25.75;98867.97;5076059;28;19923;-86
2023/02/27 09:42:18;;;;;;;;;;;;;;;16.45;23.89;98873.66;5074684;28;19925;-85
2023/02/27 09:44:51;;;;;;;;;;;;;;;15.47;24.71;98874.91;5068460;28;19917;-85
2023/02/27 09:47:20;;;;;;;;;;;;;;;17.89;22.50;98872.81;5076281;28;19916;-85
2023/02/27 09:50:06;;;;;;;;;;;;;;;17.80;23.41;98875.84;5076754;28;20397;-85
2023/02/27 09:52:34;;;;;;;;;;;;;;;14.34;25.45;98883.63;5075461;28;19943;-85
2023/02/27 09:55:00;;;;;;;;;;;;;;;12.43;30.08;98884.63;5074498;28;20347;-86
2023/02/27 09:57:26;;;;;;;;;;;;;;;10.59;29.37;98888.38;5071744;28;19924;-85
2023/02/27 09:59:55;;;;;;;;;;;;;;;11.32;31.17;98892.72;5069065;28;20322;-86
2023/02/27 10:02:21;;;;;;;;;;;;;;;11.78;29.04;98890.72;5087038;28;19922;-86
2023/02/27 10:05:06;;;;;;;;;;;;;;;11.72;30.72;98892.06;5076821;28;19916;-86
2023/02/27 10:07:32;;;;;;;;;;;;;;;14.81;26.06;98889.31;5071691;28;19929;-86
2023/02/27 10:10:08;;;;;;;;;;;;;;;17.41;23.81;98879.88;5060225;28;19924;-86
2023/02/27 10:12:44;;;;;;;;;;;;;;;18.51;21.29;98872.13;5074674;28;19988;-86
2023/02/27 10:15:10;;;;;;;;;;;;;;;17.03;21.41;98878.03;5064134;28;19916;-86
2023/02/27 10:17:42;;;;;;;;;;;;;;;14.01;26.29;98885.72;5073941;28;19920;-86
2023/02/27 10:20:28;;;;;;;;;;;;;;;13.55;27.46;98883.44;5075568;28;19999;-87
2023/02/27 10:22:56;;;;;;;;;;;;;;;16.60;22.24;98881.09;5072982;28;20610;-86
2023/02/27 10:25:23;;;;;;;;;;;;;;;17.27;21.58;98886.00;5074094;28;19963;-87
2023/02/27 10:27:52;;;;;;;;;;;;;;;15.17;24.52;98872.53;5073383;28;20413;-87
2023/02/27 10:30:20;;;;;;;;;;;;;;;14.11;28.16;98885.25;5074684;28;19920;-86
2023/02/27 10:32:47;;;;;;;;;;;;;;;13.18;27.07;98882.59;5075940;28;20016;-87
2023/02/27 10:35:20;;;;;;;;;;;;;;;13.91;27.93;98879.88;5075429;28;20015;-86
2023/02/27 10:37:48;;;;;;;;;;;;;;;13.31;28.46;98880.66;5075393;28;19924;-86
2023/02/27 10:40:15;;;;;;;;;;;;;;;12.99;29.31;98891.38;5087708;28;20260;-86
2023/02/27 10:42:41;;;;;;;;;;;;;;;13.20;29.60;98896.03;5063661;28;19920;-87
2023/02/27 10:45:14;;;;;;;;;;;;;;;12.33;28.06;98897.97;5075198;28;19940;-86
2023/02/27 10:47:41;;;;;;;;;;;;;;;12.26;30.65;98897.69;5074918;28;20015;-87
2023/02/27 10:50:27;;;;;;;;;;;;;;;11.69;30.55;98889.97;5075225;28;19916;-86
2023/02/27 10:52:55;;;;;;;;;;;;;;;11.55;30.66;98892.09;5074039;28;19924;-86
2023/02/27 10:55:23;;;;;;;;;;;;;;;12.51;30.71;98896.69;5074791;28;19917;-87
2023/02/27 10:57:49;;;;;;;;;;;;;;;13.06;30.49;98897.16;5072615;28;19970;-89
2023/02/27 11:00:24;;;;;;;;;;;;;;;11.40;29.74;98897.38;5074484;28;19920;-85
2023/02/27 11:02:53;;;;;;;;;;;;;;;11.65;31.00;98900.00;5072982;28;20450;-86
2023/02/27 11:05:25;;;;;;;;;;;;;;;10.53;32.37;98895.13;5074775;28;19971;-86
2023/02/27 11:07:51;;;;;;;;;;;;;;;10.71;32.73;98903.03;5072705;28;20015;-85
2023/02/27 11:10:20;;;;;;;;;;;;;;;11.08;30.87;98898.78;5067499;28;20390;-85
2023/02/27 11:12:57;;;;;;;;;;;;;;;10.52;32.71;98907.25;5058289;28;19964;-86
2023/02/27 11:15:24;;;;;;;;;;;;;;;10.79;32.25;98912.41;5058000;28;19920;-85
2023/02/27 11:17:51;;;;;;;;;;;;;;;12.29;29.51;98905.28;5074208;28;20019;-85
2023/02/27 11:20:33;;;;;;;;;;;;;;;12.41;29.90;98911.69;5074124;28;20371;-85
2023/02/27 11:23:12;;;;;;;;;;;;;;;12.19;30.41;98901.00;5074393;28;19923;-86
2023/02/27 11:25:38;;;;;;;;;;;;;;;12.18;30.47;98902.13;5074202;28;19917;-85
2023/02/27 11:28:20;;;;;;;;;;;;;;;13.29;29.07;98908.59;5072254;28;19957;-85
2023/02/27 11:30:54;;;;;;;;;;;;;;;15.14;25.79;98900.91;5074111;28;19921;-85
2023/02/27 11:33:20;;;;;;;;;;;;;;;13.90;28.57;98903.91;5074192;28;19917;-85
2023/02/27 11:35:51;;;;;;;;;;;;;;;12.03;31.24;98912.91;5071861;28;19946;-85
2023/02/27 11:38:24;;;;;;;;;;;;;;;11.55;32.09;98902.31;5072061;28;19923;-85
2023/02/27 11:40:54;;;;;;;;;;;;;;;12.67;31.12;98910.66;5054165;28;20287;-85
2023/02/27 11:43:34;;;;;;;;;;;;;;;12.33;32.13;98901.53;5058109;28;20439;-85
2023/02/27 11:46:02;;;;;;;;;;;;;;;11.44;33.28;98899.13;5070890;28;20277;-86
2023/02/27 11:48:31;;;;;;;;;;;;;;;11.59;34.10;98915.09;5079856;28;19924;-85
2023/02/27 11:51:26;;;;;;;;;;;;;;;10.18;36.57;98911.59;5068831;28;20027;-85
2023/02/27 11:53:58;;;;;;;;;;;;;;;10.74;35.11;98912.56;5040753;28;19916;-85
2023/02/27 11:56:36;;;;;;;;;;;;;;;11.15;35.15;98912.81;5065915;28;19925;-84
2023/02/27 11:59:08;;;;;;;;;;;;;;;11.46;34.68;98910.59;5072986;28;19932;-84
2023/02/27 12:01:36;;;;;;;;;;;;;;;11.27;34.72;98912.13;5057865;28;20365;-84
2023/02/27 12:04:21;;;;;;;;;;;;;;;11.35;34.49;98909.34;5068914;28;19932;-84
2023/02/27 12:06:52;;;;;;;;;;;;;;;12.27;32.38;98911.16;5059360;28;19920;-84
2023/02/27 12:09:21;;;;;;;;;;;;;;;11.88;34.15;98910.75;5059241;28;20024;-86
2023/02/27 12:11:48;;;;;;;;;;;;;;;11.04;35.05;98911.53;5048676;28;19928;-85
2023/02/27 12:14:17;;;;;;;;;;;;;;;11.44;34.71;98917.56;5042995;28;20356;-85
2023/02/27 12:16:49;;;;;;;;;;;;;;;12.00;32.82;98924.59;5069142;28;19968;-85
2023/02/27 12:19:48;;;;;;;;;;;;;;;12.83;32.70;98920.72;5065335;28;19950;-85
2023/02/27 12:22:19;;;;;;;;;;;;;;;15.09;28.47;98912.22;5039748;28;20445;-84
2023/02/27 12:24:51;;;;;;;;;;;;;;;15.37;27.32;98914.13;5072601;28;20394;-84
2023/02/27 12:27:28;;;;;;;;;;;;;;;13.82;30.57;98921.38;5053810;28;19924;-85
2023/02/27 12:30:01;;;;;;;;;;;;;;;14.62;28.98;98924.28;5071575;28;20315;-85
2023/02/27 12:32:32;;;;;;;;;;;;;;;13.98;29.55;98925.06;5069949;28;19920;-84
2023/02/27 12:35:11;;;;;;;;;;;;;;;12.16;32.29;98931.94;5054138;28;19921;-84
2023/02/27 12:37:37;;;;;;;;;;;;;;;12.29;32.83;98941.09;5074909;28;19920;-84
2023/02/27 12:40:10;;;;;;;;;;;;;;;14.98;27.80;98933.22;5066919;28;20257;-85
2023/02/27 12:42:37;;;;;;;;;;;;;;;13.61;29.68;98935.28;5062809;28;20016;-85
2023/02/27 12:45:06;;;;;;;;;;;;;;;12.73;31.25;98942.34;5067841;28;20015;-85
2023/02/27 12:47:47;;;;;;;;;;;;;;;12.56;31.98;98946.06;5069012;28;19920;-85
2023/02/27 12:50:20;;;;;;;;;;;;;;;13.38;30.81;98933.28;5064740;28;20415;-85
2023/02/27 12:52:46;;;;;;;;;;;;;;;14.67;28.78;98940.63;5072300;28;19917;-85
2023/02/27 12:55:14;;;;;;;;;;;;;;;15.18;27.92;98939.72;5072641;28;19917;-86
2023/02/27 12:57:46;;;;;;;;;;;;;;;13.51;29.94;98941.25;5079014;28;19924;-86
2023/02/27 13:00:14;;;;;;;;;;;;;;;15.45;27.19;98943.66;5065703;28;19928;-85
2023/02/27 13:02:59;;;;;;;;;;;;;;;16.10;26.16;98945.69;5072591;28;19986;-86